Time;durP1;ratioP1;P1;durP2;ratioP2;P2;SDS_P1;SDS_P2;PMS_P1;PMS_P2;Temp;Humidity;BMP_temperature;BMP_pressure;BME280_temperature;BME280_humidity;BME280_pressure;Samples;Min_cycle;Max_cycle;Signal;HPM_P1;HPM_P2
2021/04/10 00:01:49;;;;;;;16.17;4.63;;;6.40;86.20;;;;;;5031593;28;20049;-48
2021/04/10 00:04:15;;;;;;;14.18;4.15;;;6.40;86.70;;;;;;5021023;28;20072;-48
2021/04/10 00:06:41;;;;;;;16.20;4.30;;;6.40;86.90;;;;;;5028583;28;20041;-49
2021/04/10 00:09:08;;;;;;;13.73;4.28;;;6.40;86.70;;;;;;5028336;28;20033;-47
2021/04/10 00:11:35;;;;;;;14.30;3.38;;;6.30;86.90;;;;;;5024260;28;20084;-48
2021/04/10 00:14:04;;;;;;;13.75;3.78;;;6.30;87.00;;;;;;5029810;28;20417;-51
2021/04/10 00:16:29;;;;;;;12.60;3.40;;;6.30;87.20;;;;;;5014789;28;20053;-48
2021/04/10 00:18:56;;;;;;;15.18;4.10;;;6.30;87.10;;;;;;5029268;28;20117;-47
2021/04/10 00:21:21;;;;;;;13.57;4.20;;;6.40;86.50;;;;;;5034086;28;20120;-50
2021/04/10 00:23:47;;;;;;;11.07;4.00;;;6.40;86.60;;;;;;5037976;28;20406;-50
2021/04/10 00:26:13;;;;;;;17.00;4.63;;;6.40;86.80;;;;;;5023561;28;20136;-48
2021/04/10 00:28:40;;;;;;;11.70;3.95;;;6.40;86.10;;;;;;5028907;28;20041;-48
2021/04/10 00:31:07;;;;;;;10.32;3.85;;;6.30;86.60;;;;;;5025949;28;20041;-48
2021/04/10 00:33:37;;;;;;;11.80;4.47;;;6.30;86.80;;;;;;5020817;28;20199;-47
2021/04/10 00:36:07;;;;;;;12.20;3.90;;;6.20;87.00;;;;;;5024122;28;20046;-48
2021/04/10 00:38:34;;;;;;;13.00;3.78;;;6.20;87.00;;;;;;5029379;28;20052;-47
2021/04/10 00:41:00;;;;;;;11.82;3.30;;;6.30;86.30;;;;;;5027451;28;20033;-49
2021/04/10 00:43:27;;;;;;;15.90;4.32;;;6.40;85.90;;;;;;5030148;28;20033;-48
2021/04/10 00:45:53;;;;;;;14.02;3.60;;;6.30;86.50;;;;;;5029241;28;20472;-49
2021/04/10 00:48:19;;;;;;;14.13;3.65;;;6.30;85.80;;;;;;5030774;28;20042;-48
2021/04/10 00:50:45;;;;;;;10.07;3.38;;;6.30;85.40;;;;;;5027363;28;20490;-48
2021/04/10 00:53:11;;;;;;;13.70;3.75;;;6.30;85.60;;;;;;5024343;28;20058;-48
2021/04/10 00:55:39;;;;;;;11.13;2.90;;;6.20;85.60;;;;;;5020794;28;20077;-48
2021/04/10 00:58:05;;;;;;;11.57;3.55;;;6.30;85.10;;;;;;5028021;28;20524;-48
2021/04/10 01:00:31;;;;;;;11.90;2.90;;;6.30;84.80;;;;;;5026261;28;20132;-48
2021/04/10 01:02:57;;;;;;;9.80;2.85;;;6.20;85.90;;;;;;5028118;28;20125;-50
2021/04/10 01:05:22;;;;;;;13.35;3.28;;;6.20;85.00;;;;;;5031568;28;20049;-48
2021/04/10 01:07:48;;;;;;;12.70;2.70;;;6.10;85.20;;;;;;5025647;28;20105;-49
2021/04/10 01:10:14;;;;;;;15.55;3.00;;;6.10;85.70;;;;;;5031955;28;20045;-48
2021/04/10 01:13:01;;;;;;;16.40;3.88;;;6.00;86.00;;;;;;5030310;28;20049;-48
2021/04/10 01:15:50;;;;;;;10.52;3.25;;;6.10;85.70;;;;;;5024898;28;20055;-50
2021/04/10 01:18:33;;;;;;;9.93;3.25;;;6.20;85.30;;;;;;5024125;28;20457;-50
2021/04/10 01:21:33;;;;;;;13.25;3.05;;;6.20;85.40;;;;;;5030722;28;20045;-48
2021/04/10 01:24:32;;;;;;;13.07;2.92;;;6.10;85.80;;;;;;5015703;28;20049;-51
2021/04/10 01:27:03;;;;;;;9.50;2.80;;;6.10;85.70;;;;;;5024988;28;20518;-48
2021/04/10 01:29:31;;;;;;;11.07;3.33;;;6.00;86.40;;;;;;5021343;28;20042;-48
2021/04/10 01:31:58;;;;;;;11.73;3.08;;;6.00;85.70;;;;;;5027108;28;20041;-49
2021/04/10 01:34:34;;;;;;;8.95;3.15;;;6.00;85.70;;;;;;5030428;28;20175;-48
2021/04/10 01:37:11;;;;;;;12.88;3.25;;;6.00;86.00;;;;;;5024286;28;20050;-49
2021/04/10 01:39:40;;;;;;;10.20;2.97;;;5.90;85.90;;;;;;5028044;28;20497;-48
2021/04/10 01:42:07;;;;;;;12.55;2.75;;;6.00;85.60;;;;;;5027796;28;20030;-49
2021/04/10 01:44:33;;;;;;;14.13;3.25;;;6.00;85.50;;;;;;5035586;28;20394;-48
2021/04/10 01:47:02;;;;;;;10.05;2.88;;;6.00;85.90;;;;;;5030220;28;20513;-51
2021/04/10 01:49:30;;;;;;;11.32;2.92;;;5.90;85.90;;;;;;5037244;28;20038;-48
2021/04/10 01:51:57;;;;;;;13.70;2.97;;;5.90;86.30;;;;;;5029770;28;20072;-49
2021/04/10 01:54:23;;;;;;;12.38;2.60;;;6.00;85.70;;;;;;5033189;28;20496;-48
2021/04/10 01:56:49;;;;;;;17.17;3.42;;;5.90;85.50;;;;;;5035465;28;20037;-49
2021/04/10 01:59:16;;;;;;;10.18;2.92;;;5.90;85.90;;;;;;5032230;28;20460;-48
2021/04/10 02:01:44;;;;;;;14.20;3.33;;;5.90;86.30;;;;;;5033755;28;20041;-47
2021/04/10 02:04:12;;;;;;;13.45;3.28;;;5.90;85.80;;;;;;5033115;28;20479;-49
2021/04/10 02:06:40;;;;;;;13.50;2.88;;;5.90;85.90;;;;;;5031130;28;20065;-49
2021/04/10 02:09:09;;;;;;;15.43;3.20;;;6.00;85.50;;;;;;5021880;28;20037;-48
2021/04/10 02:11:35;;;;;;;10.48;2.78;;;5.90;85.90;;;;;;5028830;28;20302;-48
2021/04/10 02:14:03;;;;;;;10.40;2.85;;;6.00;85.60;;;;;;5030348;28;20041;-49
2021/04/10 02:16:29;;;;;;;10.65;2.75;;;5.90;85.70;;;;;;5034270;28;20050;-48
2021/04/10 02:18:56;;;;;;;12.45;2.83;;;5.90;86.00;;;;;;5037388;28;20045;-47
2021/04/10 02:21:27;;;;;;;12.88;2.78;;;6.00;85.40;;;;;;5015923;28;20046;-47
2021/04/10 02:23:53;;;;;;;10.77;2.67;;;6.10;85.40;;;;;;5032269;28;20038;-47
2021/04/10 02:26:20;;;;;;;11.65;3.00;;;6.00;85.30;;;;;;5037744;28;20505;-48
2021/04/10 02:28:46;;;;;;;12.98;3.45;;;6.00;85.50;;;;;;5038543;28;20033;-48
2021/04/10 02:31:22;;;;;;;11.23;3.70;;;5.90;85.60;;;;;;5038749;28;20072;-48
2021/04/10 02:33:49;;;;;;;9.85;3.03;;;5.90;86.10;;;;;;5033638;28;20041;-48
2021/04/10 02:36:21;;;;;;;9.55;2.72;;;6.00;86.00;;;;;;5036758;28;20565;-48
2021/04/10 02:38:49;;;;;;;13.25;2.95;;;6.00;85.90;;;;;;5032625;28;20049;-48
2021/04/10 02:41:26;;;;;;;9.98;2.92;;;5.90;86.60;;;;;;5033844;28;20037;-48
2021/04/10 02:43:56;;;;;;;11.98;3.38;;;5.80;86.60;;;;;;5029548;28;20453;-51
2021/04/10 02:46:27;;;;;;;12.93;3.30;;;5.80;86.80;;;;;;5016676;28;20152;-49
2021/04/10 02:49:01;;;;;;;11.18;3.10;;;5.80;87.00;;;;;;5011936;28;20044;-48
2021/04/10 02:51:36;;;;;;;15.38;3.28;;;5.70;87.30;;;;;;5029166;28;20461;-47
2021/04/10 02:54:05;;;;;;;10.85;2.80;;;5.70;87.30;;;;;;5030001;28;20046;-47
2021/04/10 02:56:33;;;;;;;10.75;2.58;;;5.70;87.40;;;;;;5035575;28;20053;-48
2021/04/10 02:59:00;;;;;;;12.00;3.17;;;5.80;87.10;;;;;;5033268;28;20379;-48
2021/04/10 03:01:29;;;;;;;11.02;3.03;;;5.80;87.10;;;;;;5037694;28;20083;-49
2021/04/10 03:03:55;;;;;;;11.52;3.75;;;5.80;87.20;;;;;;5015204;28;20038;-46
2021/04/10 03:06:20;;;;;;;9.27;2.92;;;5.90;86.90;;;;;;5032540;28;20403;-47
2021/04/10 03:08:47;;;;;;;10.52;3.38;;;5.80;86.90;;;;;;5031845;28;20049;-48
2021/04/10 03:11:15;;;;;;;13.90;3.17;;;5.80;86.90;;;;;;5033084;28;20622;-47
2021/04/10 03:13:41;;;;;;;10.68;3.45;;;5.80;86.90;;;;;;5018683;28;20135;-47
2021/04/10 03:16:08;;;;;;;11.00;2.90;;;5.80;86.70;;;;;;5016818;28;20510;-47
2021/04/10 03:18:35;;;;;;;15.57;3.90;;;5.70;87.00;;;;;;5031924;28;20049;-48
2021/04/10 03:21:04;;;;;;;15.32;3.40;;;5.80;86.80;;;;;;5031217;28;20132;-47
2021/04/10 03:23:30;;;;;;;18.48;3.60;;;5.80;87.20;;;;;;5028532;28;20046;-48
2021/04/10 03:25:59;;;;;;;16.13;3.25;;;5.80;87.30;;;;;;5021018;28;20083;-47
2021/04/10 03:28:28;;;;;;;15.40;4.50;;;5.70;87.30;;;;;;5029904;28;20619;-47
2021/04/10 03:30:53;;;;;;;12.68;4.03;;;5.70;87.50;;;;;;5023582;28;20041;-48
2021/04/10 03:33:19;;;;;;;11.32;3.60;;;5.70;87.70;;;;;;5031474;28;20060;-48
2021/04/10 03:35:46;;;;;;;14.27;4.18;;;5.70;87.50;;;;;;5031347;28;20108;-48
2021/04/10 03:38:12;;;;;;;13.68;3.33;;;5.70;87.80;;;;;;5030782;28;20648;-48
2021/04/10 03:40:38;;;;;;;13.18;3.28;;;5.70;87.80;;;;;;5028095;28;20037;-48
2021/04/10 03:43:04;;;;;;;16.88;4.60;;;5.60;87.90;;;;;;5031349;28;20064;-47
2021/04/10 03:45:30;;;;;;;13.25;3.58;;;5.60;87.90;;;;;;5032009;28;20478;-49
2021/04/10 03:47:56;;;;;;;11.55;3.40;;;5.80;87.80;;;;;;5032186;28;20486;-47
2021/04/10 03:50:22;;;;;;;15.18;3.92;;;5.80;87.30;;;;;;5026897;28;20037;-49
2021/04/10 03:52:49;;;;;;;13.32;3.65;;;5.80;87.30;;;;;;5026574;28;20045;-48
2021/04/10 03:55:15;;;;;;;16.70;3.65;;;5.70;87.20;;;;;;5028626;28;20884;-47
2021/04/10 03:57:41;;;;;;;13.65;3.70;;;5.70;87.60;;;;;;5030809;28;20107;-47
2021/04/10 04:00:08;;;;;;;12.35;3.40;;;5.60;88.00;;;;;;5032919;28;20406;-50
2021/04/10 04:02:33;;;;;;;16.38;4.32;;;5.60;88.00;;;;;;5033370;28;20517;-47
2021/04/10 04:04:59;;;;;;;15.13;3.55;;;5.70;87.60;;;;;;5033440;28;20167;-47
2021/04/10 04:07:25;;;;;;;12.48;3.55;;;5.70;87.60;;;;;;5029231;28;20406;-47
2021/04/10 04:09:50;;;;;;;12.65;3.70;;;5.70;87.50;;;;;;5026962;28;20406;-47
2021/04/10 04:12:17;;;;;;;17.10;3.90;;;5.60;87.70;;;;;;5032874;28;20063;-47
2021/04/10 04:14:43;;;;;;;9.07;3.65;;;5.60;88.10;;;;;;5028035;28;20045;-48
2021/04/10 04:17:08;;;;;;;9.63;2.92;;;5.70;87.40;;;;;;5032699;28;20429;-48
2021/04/10 04:19:34;;;;;;;13.48;3.58;;;5.60;87.80;;;;;;5033033;28;20049;-47
2021/04/10 04:22:00;;;;;;;15.32;3.65;;;5.60;88.00;;;;;;5030971;28;20041;-48
2021/04/10 04:24:29;;;;;;;13.65;3.67;;;5.60;87.80;;;;;;5024626;28;20095;-48
2021/04/10 04:26:57;;;;;;;9.90;3.50;;;5.70;87.70;;;;;;5020079;28;20128;-47
2021/04/10 04:29:23;;;;;;;12.57;3.33;;;5.60;88.00;;;;;;5024093;28;20045;-48
2021/04/10 04:31:48;;;;;;;21.20;3.78;;;5.60;88.30;;;;;;5027290;28;20084;-48
2021/04/10 04:34:14;;;;;;;17.02;4.68;;;5.70;87.80;;;;;;5029156;28;20041;-47
2021/04/10 04:36:40;;;;;;;11.23;3.80;;;5.70;87.50;;;;;;5030684;28;20450;-48
2021/04/10 04:39:06;;;;;;;13.35;3.33;;;5.60;87.70;;;;;;5029317;28;20040;-47
2021/04/10 04:41:32;;;;;;;14.00;3.60;;;5.60;88.00;;;;;;5030338;28;20057;-47
2021/04/10 04:44:02;;;;;;;12.38;3.58;;;5.70;87.30;;;;;;5027345;28;20046;-48
2021/04/10 04:46:28;;;;;;;15.32;3.75;;;5.70;87.20;;;;;;5028491;28;20105;-48
2021/04/10 04:48:54;;;;;;;13.00;4.30;;;5.60;87.50;;;;;;5009978;28;20124;-47
2021/04/10 04:51:21;;;;;;;14.65;3.85;;;5.50;87.80;;;;;;5032453;28;20473;-50
2021/04/10 04:53:47;;;;;;;12.50;3.30;;;5.50;87.90;;;;;;5020821;28;20497;-47
2021/04/10 04:56:13;;;;;;;16.67;4.03;;;5.50;87.80;;;;;;5020917;28;20045;-47
2021/04/10 04:58:38;;;;;;;16.05;3.70;;;5.60;87.80;;;;;;5033004;28;20052;-48
2021/04/10 05:01:05;;;;;;;13.27;3.75;;;5.70;87.30;;;;;;5032010;28;20045;-47
2021/04/10 05:03:30;;;;;;;12.52;3.47;;;5.50;87.50;;;;;;5029231;28;20046;-49
2021/04/10 05:05:56;;;;;;;11.05;3.35;;;5.60;87.30;;;;;;5022721;28;20081;-48
2021/04/10 05:08:22;;;;;;;15.32;3.70;;;5.50;87.70;;;;;;5030398;28;20434;-46
2021/04/10 05:10:47;;;;;;;15.30;3.42;;;5.50;87.30;;;;;;5020503;28;20105;-51
2021/04/10 05:13:13;;;;;;;13.40;3.28;;;5.50;87.70;;;;;;5024896;28;20473;-47
2021/04/10 05:15:39;;;;;;;13.18;3.22;;;5.50;87.30;;;;;;5023977;28;20061;-48
2021/04/10 05:18:05;;;;;;;10.45;3.40;;;5.60;86.90;;;;;;5032416;28;20061;-47
2021/04/10 05:20:30;;;;;;;11.25;3.20;;;5.60;87.10;;;;;;5035326;28;20048;-47
2021/04/10 05:22:56;;;;;;;16.92;4.07;;;5.60;86.80;;;;;;5038886;28;20490;-48
2021/04/10 05:25:23;;;;;;;16.85;3.88;;;5.50;87.50;;;;;;5027557;28;20057;-48
2021/04/10 05:27:50;;;;;;;17.85;3.88;;;5.50;86.80;;;;;;5022176;28;20044;-47
2021/04/10 05:30:16;;;;;;;13.35;3.10;;;5.50;87.10;;;;;;5021406;28;20457;-47
2021/04/10 05:32:42;;;;;;;10.50;3.75;;;5.50;87.10;;;;;;5034617;28;20065;-47
2021/04/10 05:35:09;;;;;;;14.15;3.30;;;5.60;86.40;;;;;;5029722;28;20037;-47
2021/04/10 05:37:35;;;;;;;16.30;3.08;;;5.60;86.10;;;;;;5030921;28;20049;-47
2021/04/10 05:40:02;;;;;;;10.50;2.90;;;5.50;86.60;;;;;;5027874;28;20065;-47
2021/04/10 05:42:28;;;;;;;14.57;3.17;;;5.50;86.60;;;;;;5032666;28;20552;-48
2021/04/10 05:44:55;;;;;;;15.85;3.08;;;5.50;86.70;;;;;;5033129;28;20037;-47
2021/04/10 05:47:20;;;;;;;12.60;3.30;;;5.60;86.30;;;;;;5029977;28;20533;-48
2021/04/10 05:49:46;;;;;;;12.60;3.67;;;5.60;86.10;;;;;;5031104;28;20075;-49
2021/04/10 05:52:12;;;;;;;12.77;3.10;;;5.50;86.30;;;;;;5028844;28;20057;-48
2021/04/10 05:54:37;;;;;;;15.80;3.38;;;5.50;86.50;;;;;;5024941;28;20446;-48
2021/04/10 05:57:03;;;;;;;13.05;2.90;;;5.50;86.80;;;;;;5027760;28;20056;-47
2021/04/10 05:59:29;;;;;;;14.48;3.25;;;5.50;86.90;;;;;;5034256;28;20090;-47
2021/04/10 06:01:54;;;;;;;9.50;2.75;;;5.60;86.20;;;;;;5024313;28;20133;-47
2021/04/10 06:04:20;;;;;;;15.15;3.10;;;5.60;86.00;;;;;;5031556;28;20478;-48
2021/04/10 06:06:46;;;;;;;12.55;3.67;;;5.60;85.50;;;;;;5032407;28;20044;-47
2021/04/10 06:09:11;;;;;;;14.43;3.47;;;5.60;85.80;;;;;;5030333;28;20041;-49
2021/04/10 06:11:37;;;;;;;13.45;3.15;;;5.60;85.40;;;;;;5033029;28;20132;-48
2021/04/10 06:14:03;;;;;;;10.27;2.70;;;5.60;86.00;;;;;;5028905;28;20041;-47
2021/04/10 06:16:29;;;;;;;11.68;2.50;;;5.50;86.20;;;;;;5028189;28;20107;-47
2021/04/10 06:18:54;;;;;;;16.20;3.15;;;5.50;86.10;;;;;;5029174;28;20037;-47
2021/04/10 06:21:20;;;;;;;12.50;2.38;;;5.60;86.10;;;;;;5026258;28;20030;-48
2021/04/10 06:23:47;;;;;;;16.33;2.83;;;5.60;85.30;;;;;;5028150;28;20045;-47
2021/04/10 06:26:14;;;;;;;9.85;2.20;;;5.70;85.40;;;;;;5021653;28;20559;-47
2021/04/10 06:28:40;;;;;;;12.88;2.40;;;5.70;84.00;;;;;;5024466;28;20030;-49
2021/04/10 06:31:05;;;;;;;6.55;1.85;;;5.70;84.70;;;;;;5014771;28;20038;-47
2021/04/10 06:33:31;;;;;;;13.93;2.72;;;5.70;84.40;;;;;;5022869;28;20037;-47
2021/04/10 06:35:57;;;;;;;15.68;2.95;;;5.70;84.00;;;;;;5022013;28;20047;-47
2021/04/10 06:38:22;;;;;;;17.98;2.70;;;5.60;84.60;;;;;;5013914;28;20037;-47
2021/04/10 06:40:48;;;;;;;11.02;2.25;;;5.80;83.00;;;;;;5023391;28;20058;-47
2021/04/10 06:43:16;;;;;;;11.95;2.58;;;5.80;83.50;;;;;;5018664;28;20033;-47
2021/04/10 06:45:41;;;;;;;9.82;2.67;;;5.80;83.30;;;;;;5029972;28;20053;-47
2021/04/10 06:48:13;;;;;;;13.65;2.85;;;5.80;84.40;;;;;;5039633;28;20133;-47
2021/04/10 06:50:40;;;;;;;8.07;2.40;;;5.80;83.60;;;;;;5012711;28;20050;-47
2021/04/10 06:53:12;;;;;;;11.02;3.10;;;5.90;83.00;;;;;;5012503;28;20092;-46
2021/04/10 06:55:43;;;;;;;12.85;2.67;;;5.80;83.50;;;;;;5012222;28;20049;-46
2021/04/10 06:58:16;;;;;;;11.20;2.75;;;6.10;81.50;;;;;;5018694;28;20057;-47
2021/04/10 07:00:42;;;;;;;;;;;5.90;82.70;;;;;;5032141;28;20581;-46
2021/04/10 07:03:07;;;;;;;9.30;2.90;;;5.90;82.90;;;;;;5027369;28;20012;-46
2021/04/10 07:05:33;;;;;;;11.23;2.88;;;6.00;82.40;;;;;;5028345;28;20053;-47
2021/04/10 07:07:59;;;;;;;9.07;2.22;;;5.90;83.20;;;;;;5030674;28;20071;-46
2021/04/10 07:10:25;;;;;;;11.82;2.53;;;6.10;82.20;;;;;;5025587;28;20033;-47
2021/04/10 07:12:50;;;;;;;12.57;2.60;;;6.10;81.70;;;;;;5016648;28;20053;-47
2021/04/10 07:15:17;;;;;;;10.85;2.58;;;6.10;82.50;;;;;;5021284;28;20136;-47
2021/04/10 07:17:43;;;;;;;11.73;2.35;;;6.10;82.60;;;;;;5029757;28;20498;-47
2021/04/10 07:20:29;;;;;;;19.65;3.13;;;6.20;81.00;;;;;;5021174;28;20090;-46
2021/04/10 07:23:05;;;;;;;9.05;1.95;;;6.30;81.60;;;;;;5023870;28;20126;-48
2021/04/10 07:25:33;;;;;;;14.48;2.50;;;6.30;81.20;;;;;;5021041;28;20098;-46
2021/04/10 07:28:27;;;;;;;14.90;2.85;;;6.40;81.00;;;;;;5031441;28;20056;-47
2021/04/10 07:31:04;;;;;;;16.05;2.90;;;6.40;81.20;;;;;;5022627;28;20037;-47
2021/04/10 07:33:44;;;;;;;16.88;3.30;;;6.40;80.80;;;;;;5027268;28;20068;-47
2021/04/10 07:36:13;;;;;;;13.23;2.83;;;6.40;81.10;;;;;;5025902;28;20046;-45
2021/04/10 07:38:41;;;;;;;13.65;3.10;;;6.50;81.60;;;;;;5027721;28;20518;-47
2021/04/10 07:41:13;;;;;;;12.00;2.47;;;6.50;81.40;;;;;;5027343;28;20038;-46
2021/04/10 07:43:40;;;;;;;11.07;2.30;;;6.60;81.20;;;;;;5027157;28;20045;-47
2021/04/10 07:46:26;;;;;;;11.48;2.80;;;6.80;78.60;;;;;;5020062;28;20052;-47
2021/04/10 07:49:09;;;;;;;11.90;2.92;;;6.80;79.40;;;;;;5021138;28;20073;-46
2021/04/10 07:51:38;;;;;;;18.23;2.88;;;6.80;79.20;;;;;;5029316;28;20137;-47
2021/04/10 07:54:35;;;;;;;12.00;2.67;;;6.90;78.40;;;;;;5031179;28;20065;-46
2021/04/10 07:57:05;;;;;;;11.43;1.90;;;6.90;77.30;;;;;;5021857;28;20088;-45
2021/04/10 07:59:33;;;;;;;10.60;2.42;;;6.90;76.60;;;;;;5020470;28;20152;-47
2021/04/10 08:02:14;;;;;;;13.25;2.58;;;7.00;76.10;;;;;;5025278;28;20057;-47
2021/04/10 08:04:40;;;;;;;8.05;2.40;;;6.90;77.50;;;;;;5026051;28;20132;-50
2021/04/10 08:07:07;;;;;;;13.55;2.75;;;6.90;78.10;;;;;;5021394;28;20099;-47
2021/04/10 08:09:38;;;;;;;14.68;2.53;;;7.00;76.40;;;;;;5020166;28;20029;-46
2021/04/10 08:12:11;;;;;;;8.45;2.45;;;7.00;76.90;;;;;;5031394;28;20041;-47
2021/04/10 08:14:45;;;;;;;9.13;2.70;;;7.00;75.80;;;;;;5030566;28;20049;-47
2021/04/10 08:17:12;;;;;;;13.68;2.22;;;6.90;75.70;;;;;;5030136;28;20029;-46
2021/04/10 08:19:38;;;;;;;12.65;2.92;;;6.90;76.20;;;;;;5020551;28;20053;-47
2021/04/10 08:22:05;;;;;;;14.55;2.63;;;7.00;75.50;;;;;;5020858;28;20034;-47
2021/04/10 08:24:41;;;;;;;11.70;2.58;;;7.00;76.30;;;;;;5029137;28;20536;-47
2021/04/10 08:27:09;;;;;;;14.07;2.95;;;7.10;75.30;;;;;;5014229;28;20042;-46
2021/04/10 08:29:38;;;;;;;17.23;2.78;;;7.10;75.20;;;;;;5021677;28;20041;-48
2021/04/10 08:32:04;;;;;;;14.02;2.60;;;7.20;74.10;;;;;;5020501;28;20461;-48
2021/04/10 08:34:31;;;;;;;14.60;2.67;;;7.20;74.60;;;;;;5013712;28;20104;-49
2021/04/10 08:37:07;;;;;;;8.40;1.67;;;7.20;73.70;;;;;;5013657;28;20042;-50
2021/04/10 08:39:41;;;;;;;11.35;2.05;;;7.10;72.30;;;;;;5015876;28;20094;-50
2021/04/10 08:42:11;;;;;;;8.75;2.33;;;7.20;71.30;;;;;;5018769;28;20112;-47
2021/04/10 08:44:38;;;;;;;14.38;2.70;;;7.30;71.60;;;;;;5015162;28;20034;-47
2021/04/10 08:47:04;;;;;;;9.95;2.25;;;7.40;70.40;;;;;;5016193;28;20449;-49
2021/04/10 08:49:38;;;;;;;13.73;2.22;;;7.40;70.10;;;;;;5012947;28;20045;-47
2021/04/10 08:52:07;;;;;;;9.40;1.80;;;7.30;70.20;;;;;;5014971;28;20065;-47
2021/04/10 08:54:35;;;;;;;8.88;2.25;;;7.40;69.60;;;;;;5025497;28;20391;-46
2021/04/10 08:57:14;;;;;;;5.35;1.42;;;7.40;68.30;;;;;;5019055;28;20038;-48
2021/04/10 08:59:47;;;;;;;9.07;1.75;;;7.40;65.10;;;;;;5020659;28;20046;-48
2021/04/10 09:02:21;;;;;;;9.75;2.15;;;7.40;66.40;;;;;;5022206;28;20073;-48
2021/04/10 09:05:04;;;;;;;7.10;1.67;;;7.30;66.50;;;;;;5017114;28;20042;-48
2021/04/10 09:07:48;;;;;;;7.80;1.95;;;7.40;66.40;;;;;;5016399;28;20054;-47
2021/04/10 09:10:28;;;;;;;9.65;1.90;;;7.50;65.80;;;;;;5021732;28;20601;-47
2021/04/10 09:13:15;;;;;;;8.73;2.00;;;7.40;67.10;;;;;;5025540;28;20095;-47
2021/04/10 09:15:41;;;;;;;8.93;1.90;;;7.50;67.00;;;;;;5020857;28;20046;-47
2021/04/10 09:18:08;;;;;;;9.88;2.47;;;7.50;68.30;;;;;;5024311;28;20569;-47
2021/04/10 09:20:45;;;;;;;5.43;1.75;;;7.50;68.60;;;;;;5016106;28;20038;-47
2021/04/10 09:23:30;;;;;;;9.80;1.98;;;7.70;65.80;;;;;;5020839;28;20482;-47
2021/04/10 09:26:17;;;;;;;9.55;2.42;;;7.80;67.30;;;;;;5017719;28;21330;-45
2021/04/10 09:28:55;;;;;;;6.88;1.80;;;8.00;66.30;;;;;;5027601;28;20038;-46
2021/04/10 09:31:36;;;;;;;9.82;1.92;;;8.00;65.50;;;;;;5017630;28;20038;-49
2021/04/10 09:34:03;;;;;;;8.07;1.73;;;8.10;65.40;;;;;;5028120;28;20128;-48
2021/04/10 09:36:47;;;;;;;9.18;2.22;;;8.20;64.80;;;;;;5019029;28;20045;-47
2021/04/10 09:39:51;;;;;;;8.82;1.88;;;8.30;64.80;;;;;;5026922;28;20037;-46
2021/04/10 09:45:22;;;;;;;12.32;2.47;;;8.60;65.40;;;;;;5022652;28;20129;-48
2021/04/10 09:50:33;;;;;;;9.38;2.00;;;8.80;62.50;;;;;;5021414;28;20045;-46
2021/04/10 09:53:07;;;;;;;11.43;2.08;;;8.90;62.40;;;;;;5023307;28;20041;-47
2021/04/10 09:55:37;;;;;;;10.43;2.28;;;8.80;63.30;;;;;;5029869;28;20033;-47
2021/04/10 09:58:20;;;;;;;9.98;2.08;;;8.80;63.70;;;;;;5027728;28;20574;-47
2021/04/10 10:00:58;;;;;;;10.85;2.72;;;8.90;61.80;;;;;;5026346;28;20041;-46
2021/04/10 10:03:24;;;;;;;8.57;2.00;;;8.80;61.50;;;;;;5031697;28;20037;-47
2021/04/10 10:05:53;;;;;;;11.75;2.33;;;8.70;60.90;;;;;;5033204;28;20056;-48
2021/04/10 10:08:27;;;;;;;7.70;2.00;;;8.70;62.20;;;;;;5033009;28;20061;-47
2021/04/10 10:11:06;;;;;;;13.40;2.70;;;8.60;64.00;;;;;;5020337;28;20103;-49
2021/04/10 10:13:34;;;;;;;9.95;2.30;;;8.60;63.60;;;;;;5014881;28;20053;-49
2021/04/10 10:16:01;;;;;;;8.88;2.40;;;8.60;64.10;;;;;;5014875;28;20096;-46
2021/04/10 10:18:41;;;;;;;5.22;1.60;;;8.60;63.40;;;;;;5017974;28;20113;-48
2021/04/10 10:21:11;;;;;;;7.97;2.15;;;8.70;60.90;;;;;;5021530;28;20042;-47
2021/04/10 10:23:51;;;;;;;7.88;2.20;;;8.70;61.30;;;;;;5021009;28;20045;-46
2021/04/10 10:26:29;;;;;;;8.73;2.22;;;8.60;63.30;;;;;;5015423;28;20038;-47
2021/04/10 10:28:58;;;;;;;7.55;2.10;;;8.60;62.60;;;;;;5021344;28;20041;-46
2021/04/10 10:31:26;;;;;;;12.30;2.72;;;8.50;63.30;;;;;;5030488;28;20441;-46
2021/04/10 10:33:52;;;;;;;12.93;2.45;;;8.60;62.20;;;;;;5023338;28;20045;-48
2021/04/10 10:36:20;;;;;;;10.77;2.60;;;8.60;62.20;;;;;;5028099;28;20368;-46
2021/04/10 10:38:49;;;;;;;7.30;2.40;;;8.60;63.30;;;;;;5027553;28;20041;-46
2021/04/10 10:41:17;;;;;;;7.25;2.30;;;8.70;61.80;;;;;;5032135;28;20037;-49
2021/04/10 10:43:44;;;;;;;11.38;2.65;;;8.60;62.10;;;;;;5024730;28;20065;-49
2021/04/10 10:46:21;;;;;;;9.10;2.25;;;8.60;62.70;;;;;;5019718;28;20042;-47
2021/04/10 10:48:50;;;;;;;11.85;2.58;;;8.50;62.90;;;;;;5030078;28;20441;-47
2021/04/10 10:51:22;;;;;;;12.75;2.40;;;8.50;63.60;;;;;;5016465;28;20034;-46
2021/04/10 10:53:50;;;;;;;11.00;2.23;;;8.60;63.40;;;;;;5027395;28;20037;-47
2021/04/10 10:56:22;;;;;;;11.68;2.58;;;8.60;64.20;;;;;;5022132;28;20513;-46
2021/04/10 10:58:49;;;;;;;13.07;4.38;;;8.70;62.40;;;;;;5022612;28;20053;-50
2021/04/10 11:01:25;;;;;;;8.85;1.92;;;8.70;62.40;;;;;;5027230;28;20445;-47
2021/04/10 11:03:59;;;;;;;10.02;2.45;;;8.70;59.20;;;;;;5020595;28;20038;-50
2021/04/10 11:06:28;;;;;;;9.07;2.05;;;8.60;61.40;;;;;;5018198;28;20055;-47
2021/04/10 11:08:55;;;;;;;10.80;2.40;;;8.60;60.60;;;;;;5022201;28;20038;-47
2021/04/10 11:11:35;;;;;;;6.97;2.33;;;8.60;61.80;;;;;;5028681;28;20037;-47
2021/04/10 11:14:01;;;;;;;6.22;2.03;;;8.60;62.30;;;;;;5021561;28;20095;-46
2021/04/10 11:16:27;;;;;;;11.25;2.55;;;8.60;62.50;;;;;;5020919;28;20059;-46
2021/04/10 11:18:55;;;;;;;12.85;2.63;;;8.60;62.00;;;;;;5021804;28;20049;-46
2021/04/10 11:21:31;;;;;;;8.73;2.30;;;8.60;61.80;;;;;;5024476;28;20128;-47
2021/04/10 11:24:06;;;;;;;8.45;2.15;;;8.60;62.40;;;;;;5020230;28;20068;-46
2021/04/10 11:26:40;;;;;;;6.68;2.03;;;8.70;60.90;;;;;;5023326;28;20056;-47
2021/04/10 11:29:12;;;;;;;13.32;2.20;;;8.70;61.30;;;;;;5026143;28;20554;-48
2021/04/10 11:31:38;;;;;;;7.47;2.17;;;8.60;62.10;;;;;;5017730;28;20099;-46
2021/04/10 11:34:33;;;;;;;7.32;1.77;;;8.80;60.40;;;;;;5019467;28;20437;-47
2021/04/10 11:37:00;;;;;;;8.02;2.13;;;8.70;59.50;;;;;;5026796;28;20037;-48
2021/04/10 11:39:26;;;;;;;12.18;2.28;;;8.70;59.80;;;;;;5023919;28;20041;-46
2021/04/10 11:41:53;;;;;;;8.30;1.80;;;8.60;61.00;;;;;;5025907;28;20052;-49
2021/04/10 11:44:20;;;;;;;9.25;1.80;;;8.70;61.70;;;;;;5017798;28;20042;-46
2021/04/10 11:46:47;;;;;;;9.20;2.13;;;8.80;60.60;;;;;;5014834;28;20409;-45
2021/04/10 11:49:26;;;;;;;9.93;2.00;;;8.80;59.20;;;;;;5026633;28;20490;-48
2021/04/10 11:51:52;;;;;;;9.25;1.88;;;8.80;59.40;;;;;;5016391;28;20123;-48
2021/04/10 11:54:35;;;;;;;4.80;1.52;;;8.80;60.40;;;;;;5024228;28;20096;-47
2021/04/10 11:57:01;;;;;;;;;;;8.90;59.30;;;;;;5024461;28;20037;-47
2021/04/10 11:59:34;;;;;;;5.90;1.75;;;9.00;59.50;;;;;;5031305;28;19928;-46
2021/04/10 12:02:02;;;;;;;11.73;1.90;;;9.00;59.30;;;;;;5024463;28;20060;-46
2021/04/10 12:04:40;;;;;;;9.35;1.92;;;9.00;60.10;;;;;;5023091;28;20053;-48
2021/04/10 12:07:11;;;;;;;6.70;2.05;;;8.90;60.60;;;;;;5030057;28;20033;-46
2021/04/10 12:09:38;;;;;;;12.05;2.17;;;9.00;59.10;;;;;;5018054;28;20037;-47
2021/04/10 12:12:08;;;;;;;9.02;2.15;;;9.00;59.60;;;;;;5032169;28;20050;-47
2021/04/10 12:14:36;;;;;;;6.00;1.83;;;9.00;58.90;;;;;;5027340;28;20048;-46
2021/04/10 12:17:02;;;;;;;7.65;2.00;;;9.00;59.50;;;;;;5029645;28;20073;-46
2021/04/10 12:19:28;;;;;;;8.93;1.83;;;9.00;58.50;;;;;;5017958;28;20096;-48
2021/04/10 12:21:54;;;;;;;7.38;1.95;;;9.00;59.20;;;;;;5024721;28;20513;-45
2021/04/10 12:24:19;;;;;;;11.68;2.17;;;9.00;59.00;;;;;;5027602;28;20037;-47
2021/04/10 12:26:46;;;;;;;9.18;1.90;;;9.00;58.80;;;;;;5018953;28;20037;-46
2021/04/10 12:29:12;;;;;;;4.65;1.73;;;9.10;58.20;;;;;;5023963;28;20033;-46
2021/04/10 12:31:38;;;;;;;7.90;2.30;;;9.10;58.70;;;;;;5018122;28;20049;-46
2021/04/10 12:34:04;;;;;;;7.50;1.88;;;9.00;59.80;;;;;;5019294;28;20087;-46
2021/04/10 12:36:31;;;;;;;6.70;2.33;;;9.00;59.70;;;;;;5023344;28;20069;-46
2021/04/10 12:38:57;;;;;;;6.40;2.05;;;9.00;59.10;;;;;;5022379;28;20033;-46
2021/04/10 12:41:23;;;;;;;6.60;1.80;;;9.00;59.80;;;;;;5023802;28;20042;-46
2021/04/10 12:43:49;;;;;;;8.18;2.28;;;9.00;58.80;;;;;;5018706;28;20132;-45
2021/04/10 12:46:18;;;;;;;6.88;2.42;;;9.00;60.00;;;;;;5025942;28;20091;-47
2021/04/10 12:48:43;;;;;;;8.32;2.50;;;8.90;61.00;;;;;;5016183;28;20137;-44
2021/04/10 12:51:09;;;;;;;6.55;2.00;;;8.90;62.30;;;;;;5016739;28;20089;-46
2021/04/10 12:53:35;;;;;;;7.32;1.67;;;9.00;60.50;;;;;;5014662;28;20079;-46
2021/04/10 12:56:00;;;;;;;5.15;1.60;;;8.90;60.20;;;;;;5017474;28;20045;-46
2021/04/10 12:58:26;;;;;;;9.80;2.13;;;8.90;60.40;;;;;;5016933;28;20060;-46
2021/04/10 13:00:53;;;;;;;10.27;2.17;;;8.70;62.20;;;;;;5012808;28;20045;-49
2021/04/10 13:03:22;;;;;;;6.72;2.05;;;8.60;62.80;;;;;;5016453;28;20095;-47
2021/04/10 13:05:48;;;;;;;4.80;1.90;;;8.60;62.00;;;;;;5012454;28;20042;-49
2021/04/10 13:08:14;;;;;;;6.38;2.60;;;8.60;63.50;;;;;;5021278;28;20073;-46